Time;durP1;ratioP1;P1;durP2;ratioP2;P2;SDS_P1;SDS_P2;PMS_P1;PMS_P2;Temp;Humidity;BMP_temperature;BMP_pressure;BME280_temperature;BME280_humidity;BME280_pressure;Samples;Min_cycle;Max_cycle;Signal;HPM_P1;HPM_P2
2021/07/03 00:00:35;;;;;;;36.33;24.45;;;14.90;99.90;;;;;;5051731;28;20405;-71
2021/07/03 00:03:01;;;;;;;38.33;23.73;;;15.00;99.90;;;;;;5051496;28;20385;-71
2021/07/03 00:05:27;;;;;;;32.90;23.13;;;15.00;99.90;;;;;;5052326;28;20382;-71
2021/07/03 00:07:53;;;;;;;34.30;23.45;;;14.90;99.90;;;;;;5051850;28;20385;-71
2021/07/03 00:10:19;;;;;;;32.80;23.00;;;14.90;99.90;;;;;;5051893;28;20579;-72
2021/07/03 00:12:45;;;;;;;36.07;23.60;;;14.80;99.90;;;;;;5051298;28;20874;-69
2021/07/03 00:15:20;;;;;;;35.30;23.73;;;14.70;99.90;;;;;;5051435;28;20471;-72
2021/07/03 00:17:47;;;;;;;36.67;23.60;;;14.80;99.90;;;;;;5052035;28;20389;-72
2021/07/03 00:20:13;;;;;;;37.92;24.30;;;14.80;99.90;;;;;;5051633;28;20420;-72
2021/07/03 00:22:39;;;;;;;33.95;23.20;;;14.80;99.90;;;;;;5051637;28;20896;-72
2021/07/03 00:25:05;;;;;;;37.33;24.05;;;14.80;99.90;;;;;;5051428;28;20382;-69
2021/07/03 00:27:31;;;;;;;34.30;22.90;;;14.70;99.90;;;;;;5051786;28;20393;-70
2021/07/03 00:29:57;;;;;;;38.00;24.10;;;14.90;99.90;;;;;;5051283;28;20404;-72
2021/07/03 00:32:22;;;;;;;38.20;23.38;;;14.80;99.90;;;;;;5052535;28;20951;-72
2021/07/03 00:34:49;;;;;;;37.83;23.90;;;14.70;99.90;;;;;;5050882;28;20424;-73
2021/07/03 00:37:15;;;;;;;37.42;24.38;;;14.60;99.90;;;;;;5051856;28;20762;-73
2021/07/03 00:39:40;;;;;;;38.50;24.20;;;14.60;99.90;;;;;;5051010;28;20488;-72
2021/07/03 00:42:06;;;;;;;34.73;23.97;;;14.60;99.90;;;;;;5051069;28;20401;-70
2021/07/03 00:44:33;;;;;;;37.75;24.50;;;14.60;99.90;;;;;;5050865;28;20397;-72
2021/07/03 00:47:00;;;;;;;36.50;25.27;;;14.60;99.90;;;;;;5051048;28;20392;-72
2021/07/03 00:49:26;;;;;;;39.30;25.17;;;14.60;99.90;;;;;;5051332;28;20393;-70
2021/07/03 00:51:52;;;;;;;36.13;24.63;;;14.50;99.90;;;;;;5050935;28;20462;-71
2021/07/03 00:54:21;;;;;;;36.05;24.33;;;14.60;99.90;;;;;;5050636;28;20397;-71
2021/07/03 00:56:48;;;;;;;39.58;25.40;;;14.60;99.90;;;;;;5050995;28;20382;-72
2021/07/03 00:59:14;;;;;;;38.27;26.03;;;14.50;99.90;;;;;;5050925;28;20373;-71
2021/07/03 01:01:40;;;;;;;42.90;25.88;;;14.40;99.90;;;;;;5050950;28;20404;-72
2021/07/03 01:04:05;;;;;;;38.97;25.17;;;14.40;99.90;;;;;;5050429;28;20389;-72
2021/07/03 01:06:31;;;;;;;36.63;24.23;;;14.60;99.90;;;;;;5050683;28;20860;-71
2021/07/03 01:08:57;;;;;;;36.70;24.10;;;14.60;99.90;;;;;;5050521;28;20377;-72
2021/07/03 01:11:26;;;;;;;34.33;24.07;;;14.60;99.90;;;;;;5050878;28;20381;-71
2021/07/03 01:13:53;;;;;;;39.60;25.00;;;14.50;99.90;;;;;;5049966;28;20480;-71
2021/07/03 01:16:19;;;;;;;44.05;25.02;;;14.50;99.90;;;;;;5050571;28;20385;-71
2021/07/03 01:18:45;;;;;;;36.70;24.55;;;14.40;99.90;;;;;;5050695;28;20845;-71
2021/07/03 01:21:11;;;;;;;40.55;24.80;;;14.40;99.90;;;;;;5050590;28;20378;-71
2021/07/03 01:23:36;;;;;;;38.72;25.58;;;14.30;99.90;;;;;;5050316;28;20386;-70
2021/07/03 01:26:02;;;;;;;36.03;24.60;;;14.30;99.90;;;;;;5049421;28;20797;-72
2021/07/03 01:28:28;;;;;;;42.63;25.65;;;14.30;99.90;;;;;;5050388;28;20409;-72
2021/07/03 01:30:54;;;;;;;37.60;24.20;;;14.30;99.90;;;;;;5050194;28;20390;-72
2021/07/03 01:33:21;;;;;;;37.63;24.63;;;14.30;99.90;;;;;;5050158;28;20892;-71
2021/07/03 01:35:46;;;;;;;39.43;25.70;;;14.30;99.90;;;;;;5050488;28;20459;-70
2021/07/03 01:38:23;;;;;;;39.37;24.30;;;14.30;99.90;;;;;;5050268;28;20389;-71
2021/07/03 01:40:48;;;;;;;39.97;25.50;;;14.30;99.90;;;;;;5050724;28;20381;-70
2021/07/03 01:43:19;;;;;;;34.20;23.27;;;14.20;99.90;;;;;;5049985;28;20381;-71
2021/07/03 01:45:45;;;;;;;40.30;24.60;;;14.20;99.90;;;;;;5050322;28;20381;-71
2021/07/03 01:48:11;;;;;;;34.95;23.77;;;14.10;99.90;;;;;;5050251;28;20377;-71
2021/07/03 01:50:36;;;;;;;36.78;24.63;;;14.10;99.90;;;;;;5050375;28;20488;-71
2021/07/03 01:53:02;;;;;;;39.50;25.90;;;14.10;99.90;;;;;;5050039;28;20396;-70
2021/07/03 01:55:28;;;;;;;38.65;26.35;;;14.10;99.90;;;;;;5050159;28;20408;-70
2021/07/03 01:57:53;;;;;;;39.10;25.50;;;14.10;99.90;;;;;;5050134;28;20463;-71
2021/07/03 02:00:19;;;;;;;37.42;24.55;;;14.10;99.90;;;;;;5050002;28;20465;-71
2021/07/03 02:02:45;;;;;;;40.22;25.35;;;14.40;99.90;;;;;;5050160;28;20749;-71
2021/07/03 02:05:11;;;;;;;36.53;24.50;;;14.30;99.90;;;;;;5050234;28;20374;-72
2021/07/03 02:07:37;;;;;;;37.15;25.35;;;14.20;99.90;;;;;;5050137;28;20425;-71
2021/07/03 02:10:03;;;;;;;46.97;27.40;;;14.10;99.90;;;;;;5049911;28;20427;-71
2021/07/03 02:12:29;;;;;;;42.85;27.17;;;14.00;99.90;;;;;;5049933;28;20381;-72
2021/07/03 02:14:54;;;;;;;46.00;27.50;;;14.10;99.90;;;;;;5049725;28;20463;-72
2021/07/03 02:17:20;;;;;;;38.97;26.17;;;14.00;99.90;;;;;;5050347;28;20385;-72
2021/07/03 02:19:45;;;;;;;39.20;26.37;;;14.00;99.90;;;;;;5050520;28;20408;-72
2021/07/03 02:22:11;;;;;;;41.45;27.10;;;14.00;99.90;;;;;;5050356;28;20889;-73
2021/07/03 02:24:37;;;;;;;40.50;27.23;;;13.90;99.90;;;;;;5048812;28;20386;-72
2021/07/03 02:27:03;;;;;;;40.03;26.30;;;13.90;99.90;;;;;;5053074;28;20878;-72
2021/07/03 02:29:29;;;;;;;40.57;27.17;;;13.90;99.90;;;;;;5054567;28;20394;-72
2021/07/03 02:31:56;;;;;;;47.58;28.08;;;13.90;99.90;;;;;;5051894;28;20505;-73
2021/07/03 02:34:22;;;;;;;45.63;26.45;;;14.00;99.90;;;;;;5053066;28;20403;-72
2021/07/03 02:36:47;;;;;;;42.55;26.73;;;14.00;99.90;;;;;;5053281;28;20428;-73
2021/07/03 02:39:13;;;;;;;41.57;26.80;;;14.00;99.90;;;;;;5053300;28;20369;-70
2021/07/03 02:41:38;;;;;;;45.43;28.33;;;14.00;99.90;;;;;;5053276;28;20385;-70
2021/07/03 02:44:05;;;;;;;45.67;27.45;;;14.00;99.90;;;;;;5052944;28;20938;-70
2021/07/03 02:46:30;;;;;;;41.17;26.88;;;14.00;99.90;;;;;;5053202;28;20381;-71
2021/07/03 02:48:56;;;;;;;47.77;27.33;;;14.00;99.90;;;;;;5053135;28;20441;-71
2021/07/03 02:51:21;;;;;;;47.30;28.03;;;14.00;99.90;;;;;;5053098;28;20389;-71
2021/07/03 02:53:47;;;;;;;40.33;26.83;;;14.00;99.90;;;;;;5051588;28;20442;-71
2021/07/03 02:56:12;;;;;;;42.85;25.85;;;14.00;99.90;;;;;;5052904;28;20382;-71
2021/07/03 02:58:38;;;;;;;41.20;26.70;;;14.00;99.90;;;;;;5052912;28;20750;-71
2021/07/03 03:01:03;;;;;;;46.50;27.00;;;14.00;99.90;;;;;;5052906;28;20420;-72
2021/07/03 03:03:30;;;;;;;40.87;25.87;;;13.90;99.90;;;;;;5052691;28;20378;-71
2021/07/03 03:05:57;;;;;;;43.35;25.02;;;13.90;99.90;;;;;;5052795;28;20594;-71
2021/07/03 03:08:22;;;;;;;42.90;26.55;;;14.10;99.90;;;;;;5052887;28;20382;-71
2021/07/03 03:10:48;;;;;;;38.15;25.75;;;14.10;99.90;;;;;;5052767;28;20396;-71
2021/07/03 03:13:13;;;;;;;41.20;25.48;;;14.10;99.90;;;;;;5052642;28;21064;-71
2021/07/03 03:15:39;;;;;;;39.63;25.60;;;14.00;99.90;;;;;;5051392;28;20936;-72
2021/07/03 03:18:04;;;;;;;42.30;25.70;;;14.00;99.90;;;;;;5053058;28;20381;-71
2021/07/03 03:20:30;;;;;;;41.07;25.27;;;13.90;99.90;;;;;;5053083;28;20873;-71
2021/07/03 03:22:56;;;;;;;40.08;23.88;;;14.00;99.90;;;;;;5053272;28;20397;-72
2021/07/03 03:25:21;;;;;;;36.83;25.70;;;14.00;99.90;;;;;;5052561;28;20447;-71
2021/07/03 03:27:47;;;;;;;37.78;24.15;;;14.00;99.90;;;;;;5052974;28;20421;-71
2021/07/03 03:30:15;;;;;;;39.63;24.60;;;14.00;99.90;;;;;;5066409;23;20542;-77
2021/07/03 03:32:41;;;;;;;38.17;24.25;;;14.00;99.90;;;;;;5051007;28;20603;-76
2021/07/03 03:35:07;;;;;;;40.95;24.17;;;14.10;99.90;;;;;;5052050;28;20405;-77
2021/07/03 03:37:33;;;;;;;38.47;25.08;;;14.10;99.90;;;;;;5067089;28;20390;-77
2021/07/03 03:39:58;;;;;;;35.83;23.17;;;14.30;99.90;;;;;;5067485;28;20841;-76
2021/07/03 03:42:24;;;;;;;34.80;22.90;;;14.30;99.90;;;;;;5050843;28;20726;-77
2021/07/03 03:44:49;;;;;;;37.73;22.97;;;14.40;99.90;;;;;;5052302;28;20390;-77
2021/07/03 03:47:15;;;;;;;36.13;22.58;;;14.40;99.90;;;;;;5052142;28;20454;-76
2021/07/03 03:49:41;;;;;;;34.63;21.10;;;14.60;99.90;;;;;;5051930;28;20438;-76
2021/07/03 03:52:06;;;;;;;36.30;21.60;;;14.60;99.90;;;;;;5052499;28;20381;-76
2021/07/03 03:54:32;;;;;;;36.23;21.80;;;14.80;99.90;;;;;;5054298;28;20476;-76
2021/07/03 03:59:41;;;;;;;30.80;19.87;;;14.90;99.90;;;;;;5054416;28;20396;-76
2021/07/03 04:02:07;;;;;;;31.83;20.17;;;15.00;99.90;;;;;;5056772;28;20381;-76
2021/07/03 04:04:33;;;;;;;30.87;20.40;;;15.10;99.90;;;;;;5059451;28;20896;-75
2021/07/03 04:06:58;;;;;;;28.75;19.90;;;15.10;99.90;;;;;;5071565;28;20444;-75
2021/07/03 04:09:24;;;;;;;31.70;19.93;;;15.10;99.90;;;;;;5055459;28;20796;-77
2021/07/03 04:11:49;;;;;;;27.87;20.30;;;15.10;99.90;;;;;;5054255;28;20390;-76
2021/07/03 04:14:15;;;;;;;31.93;20.37;;;15.10;99.90;;;;;;5057319;28;20409;-77
2021/07/03 04:16:40;;;;;;;28.83;20.15;;;15.20;99.90;;;;;;5057718;28;20387;-77
2021/07/03 04:19:06;;;;;;;26.45;19.63;;;15.20;99.90;;;;;;5051394;28;20377;-76
2021/07/03 04:21:32;;;;;;;26.83;18.90;;;15.30;99.90;;;;;;5051487;28;20413;-76
2021/07/03 04:23:57;;;;;;;25.90;17.70;;;15.50;99.10;;;;;;5050797;28;20389;-77
2021/07/03 04:26:23;;;;;;;26.23;17.43;;;15.50;98.10;;;;;;5053711;28;20750;-77
2021/07/03 04:28:48;;;;;;;28.30;17.35;;;15.50;97.80;;;;;;5053088;28;20391;-77
2021/07/03 04:31:14;;;;;;;27.60;18.00;;;15.50;97.40;;;;;;5053603;28;20401;-77
2021/07/03 04:33:39;;;;;;;24.70;17.83;;;15.60;97.10;;;;;;5051727;28;20443;-77
2021/07/03 04:36:05;;;;;;;27.00;17.30;;;15.70;96.50;;;;;;5051345;28;20418;-77
2021/07/03 04:38:30;;;;;;;23.58;16.98;;;15.70;96.10;;;;;;5052021;28;20919;-78
2021/07/03 04:40:56;;;;;;;26.63;17.30;;;15.80;94.20;;;;;;5052162;28;20896;-77
2021/07/03 04:43:21;;;;;;;22.30;15.60;;;15.90;92.90;;;;;;5051299;28;20810;-77
2021/07/03 04:45:47;;;;;;;21.88;16.20;;;16.00;92.00;;;;;;5050990;28;20419;-77
2021/07/03 04:48:13;;;;;;;24.17;15.82;;;16.10;90.40;;;;;;5050909;28;20390;-77
2021/07/03 04:50:39;;;;;;;24.17;16.85;;;16.20;89.60;;;;;;5049557;28;20769;-77
2021/07/03 04:53:05;;;;;;;23.65;16.02;;;16.40;89.30;;;;;;5051937;28;20468;-76
2021/07/03 04:55:31;;;;;;;26.15;18.45;;;16.50;85.10;;;;;;5051100;28;20392;-75
2021/07/03 04:57:57;;;;;;;22.47;15.50;;;16.60;84.40;;;;;;5057799;28;20404;-76
2021/07/03 05:00:23;;;;;;;22.13;15.20;;;16.70;84.10;;;;;;5066345;28;20763;-75
2021/07/03 05:02:48;;;;;;;21.85;14.48;;;16.80;82.50;;;;;;5060783;28;20425;-76
2021/07/03 05:05:14;;;;;;;19.93;14.10;;;16.90;82.00;;;;;;5051587;28;20808;-78
2021/07/03 05:07:43;;;;;;;23.73;14.97;;;16.90;81.00;;;;;;5049422;28;20804;-77
2021/07/03 05:10:10;;;;;;;20.25;14.65;;;17.00;78.90;;;;;;5050430;28;20391;-77
2021/07/03 05:12:35;;;;;;;21.73;14.52;;;17.00;79.00;;;;;;5050607;28;20842;-77
2021/07/03 05:15:01;;;;;;;19.85;13.75;;;17.10;78.30;;;;;;5050489;28;20407;-77
2021/07/03 05:17:28;;;;;;;23.90;14.70;;;17.10;76.40;;;;;;5049623;28;20910;-77
2021/07/03 05:19:54;;;;;;;18.88;13.75;;;17.10;76.00;;;;;;5051228;28;20373;-77
2021/07/03 05:22:20;;;;;;;17.90;13.50;;;17.10;75.90;;;;;;5050853;28;20409;-77
2021/07/03 05:24:46;;;;;;;21.20;13.68;;;17.30;75.60;;;;;;5051609;28;20416;-77
2021/07/03 05:27:11;;;;;;;18.00;13.30;;;17.30;74.00;;;;;;5054179;28;20374;-77
2021/07/03 05:29:37;;;;;;;18.70;13.90;;;17.30;72.60;;;;;;5052957;28;20397;-76
2021/07/03 05:32:03;;;;;;;16.60;13.60;;;17.40;72.50;;;;;;5067273;28;20842;-75
2021/07/03 05:34:28;;;;;;;21.50;13.90;;;17.40;71.80;;;;;;5066991;28;20401;-76
2021/07/03 05:36:54;;;;;;;16.00;12.93;;;17.50;71.40;;;;;;5051424;28;20467;-77
2021/07/03 05:39:20;;;;;;;23.05;13.40;;;17.50;70.40;;;;;;5050591;28;20411;-78
2021/07/03 05:41:46;;;;;;;19.17;13.57;;;17.60;69.50;;;;;;5052217;28;20810;-76
2021/07/03 05:44:11;;;;;;;17.63;13.38;;;17.70;67.10;;;;;;5054914;28;20395;-77
2021/07/03 05:46:37;;;;;;;20.43;13.37;;;17.80;66.00;;;;;;5069341;28;20377;-76
2021/07/03 05:49:02;;;;;;;20.53;13.53;;;17.90;62.80;;;;;;5054610;28;20408;-77
2021/07/03 05:51:28;;;;;;;22.67;13.37;;;17.90;62.90;;;;;;5050689;28;20792;-77
2021/07/03 05:53:55;;;;;;;22.15;13.30;;;18.00;62.40;;;;;;5050153;28;20941;-77
2021/07/03 05:56:21;;;;;;;18.70;12.73;;;18.20;60.90;;;;;;5050435;28;20388;-76
2021/07/03 05:58:47;;;;;;;17.33;12.18;;;18.20;59.10;;;;;;5050143;28;20393;-76
2021/07/03 06:01:12;;;;;;;17.45;12.93;;;18.30;58.90;;;;;;5053382;28;20385;-76
2021/07/03 06:03:38;;;;;;;17.63;13.20;;;18.40;58.20;;;;;;5054979;28;20438;-76
2021/07/03 06:06:04;;;;;;;15.90;12.30;;;18.50;57.70;;;;;;5054187;28;20400;-76
2021/07/03 06:08:30;;;;;;;14.73;12.18;;;18.60;55.80;;;;;;5056679;28;20424;-76
2021/07/03 06:10:56;;;;;;;16.77;12.35;;;18.60;55.60;;;;;;5054784;28;20427;-77
2021/07/03 06:13:22;;;;;;;21.58;12.18;;;18.80;55.50;;;;;;5054689;28;20417;-78
2021/07/03 06:15:47;;;;;;;17.23;11.70;;;18.90;55.50;;;;;;5055204;28;20401;-78
2021/07/03 06:18:13;;;;;;;16.20;12.63;;;19.00;53.50;;;;;;5054985;28;20388;-77
2021/07/03 06:20:39;;;;;;;16.15;12.00;;;19.10;52.10;;;;;;5056122;28;20642;-77
2021/07/03 06:23:06;;;;;;;16.35;12.05;;;19.20;51.50;;;;;;5054623;28;20468;-76
2021/07/03 06:25:32;;;;;;;18.85;12.38;;;19.30;52.00;;;;;;5054147;28;20757;-77
2021/07/03 06:27:58;;;;;;;14.65;12.20;;;19.30;51.40;;;;;;5052625;28;20392;-77
2021/07/03 06:30:23;;;;;;;19.97;11.80;;;19.20;52.00;;;;;;5051971;28;20397;-77
2021/07/03 06:32:49;;;;;;;15.48;11.98;;;19.10;52.80;;;;;;5053344;28;20485;-77
2021/07/03 06:35:15;;;;;;;19.02;12.30;;;19.10;54.30;;;;;;5053223;28;20409;-78
2021/07/03 06:37:40;;;;;;;18.60;11.63;;;19.10;55.30;;;;;;5053395;28;20854;-75
2021/07/03 06:40:07;;;;;;;19.70;13.30;;;19.10;55.50;;;;;;5053208;28;20386;-77
2021/07/03 06:42:32;;;;;;;15.27;11.40;;;19.30;54.00;;;;;;5053068;28;20391;-79
2021/07/03 06:44:58;;;;;;;16.00;12.10;;;19.40;53.00;;;;;;5053434;28;20464;-77
2021/07/03 06:47:24;;;;;;;14.47;11.37;;;19.50;51.50;;;;;;5053068;28;20722;-77
2021/07/03 06:49:49;;;;;;;15.80;11.90;;;19.70;51.30;;;;;;5053481;28;20448;-76
2021/07/03 06:52:15;;;;;;;15.65;11.40;;;19.80;51.50;;;;;;5068552;28;20754;-77
2021/07/03 06:54:41;;;;;;;15.97;11.20;;;20.00;49.30;;;;;;5052872;28;20478;-77
2021/07/03 06:57:08;;;;;;;15.45;11.75;;;20.10;48.70;;;;;;5068136;28;20397;-77
2021/07/03 06:59:35;;;;;;;19.65;11.60;;;20.20;47.50;;;;;;5053385;28;20476;-77
2021/07/03 07:02:01;;;;;;;15.57;10.80;;;20.30;47.40;;;;;;5053271;28;20857;-77
2021/07/03 07:04:26;;;;;;;13.90;11.65;;;20.30;46.50;;;;;;5052704;28;20484;-78
2021/07/03 07:06:56;;;;;;;13.40;10.80;;;20.40;45.10;;;;;;5054930;28;20389;-75
2021/07/03 07:09:26;;;;;;;17.45;12.23;;;20.40;44.90;;;;;;5055243;28;20381;-76
2021/07/03 07:11:52;;;;;;;15.80;11.10;;;20.50;45.00;;;;;;5055067;28;20810;-76
2021/07/03 07:14:18;;;;;;;24.20;15.55;;;20.60;44.60;;;;;;5054270;28;20408;-77
2021/07/03 07:16:44;;;;;;;15.95;10.10;;;20.70;44.20;;;;;;5058683;28;20385;-77
2021/07/03 07:19:10;;;;;;;14.03;10.67;;;20.70;43.60;;;;;;5056763;28;20401;-76
2021/07/03 07:21:36;;;;;;;15.63;11.07;;;20.80;43.00;;;;;;5056487;28;20471;-75
2021/07/03 07:24:03;;;;;;;14.82;10.95;;;20.90;42.70;;;;;;5055655;28;20441;-77
2021/07/03 07:26:29;;;;;;;14.77;10.60;;;21.00;39.50;;;;;;5054067;28;20396;-76
2021/07/03 07:28:55;;;;;;;13.85;10.68;;;21.00;39.90;;;;;;5052503;28;20393;-76
2021/07/03 07:31:21;;;;;;;12.52;10.13;;;21.10;38.60;;;;;;5052047;28;20408;-76
2021/07/03 07:33:47;;;;;;;14.38;10.68;;;21.30;38.90;;;;;;5051955;28;20468;-77
2021/07/03 07:36:13;;;;;;;16.55;11.40;;;21.40;36.60;;;;;;5052032;28;20473;-76
2021/07/03 07:38:39;;;;;;;17.23;11.98;;;21.30;35.40;;;;;;5052453;28;20393;-76
2021/07/03 07:41:05;;;;;;;18.70;11.60;;;21.30;35.90;;;;;;5051915;28;20420;-76
2021/07/03 07:43:31;;;;;;;15.95;11.13;;;21.40;36.60;;;;;;5051792;28;20570;-75
2021/07/03 07:45:57;;;;;;;13.50;10.80;;;21.40;35.10;;;;;;5051890;28;20385;-77
2021/07/03 07:48:23;;;;;;;15.07;10.45;;;21.50;35.50;;;;;;5051746;28;20687;-76
2021/07/03 07:50:49;;;;;;;21.60;10.93;;;21.50;35.60;;;;;;5051753;28;20393;-77
2021/07/03 07:53:15;;;;;;;15.37;11.10;;;21.60;34.70;;;;;;5052017;28;20398;-77
2021/07/03 07:55:41;;;;;;;12.43;9.97;;;21.70;35.10;;;;;;5051873;28;20757;-77
2021/07/03 07:58:07;;;;;;;11.50;9.25;;;21.70;35.30;;;;;;5052380;28;20747;-75
2021/07/03 08:00:32;;;;;;;16.88;10.75;;;21.80;34.10;;;;;;5051657;28;20386;-77
2021/07/03 08:02:58;;;;;;;13.47;10.20;;;21.90;32.70;;;;;;5051512;28;20393;-78
2021/07/03 08:05:24;;;;;;;12.77;9.80;;;21.90;33.00;;;;;;5051651;28;20385;-77
2021/07/03 08:07:51;;;;;;;13.38;8.98;;;22.00;32.90;;;;;;5051687;28;20448;-76
2021/07/03 08:10:16;;;;;;;13.25;9.90;;;22.10;32.70;;;;;;5052054;28;20397;-76
2021/07/03 08:12:43;;;;;;;13.15;9.63;;;22.20;32.00;;;;;;5051527;28;20390;-77
2021/07/03 08:15:09;;;;;;;13.50;9.75;;;22.30;32.30;;;;;;5053612;28;20470;-77
2021/07/03 08:17:42;;;;;;;13.90;9.00;;;22.40;31.90;;;;;;5052671;28;20455;-76
2021/07/03 08:20:08;;;;;;;12.95;9.43;;;22.50;32.70;;;;;;5053981;28;20377;-77
2021/07/03 08:22:34;;;;;;;19.05;9.65;;;22.60;31.20;;;;;;5051465;28;20960;-77
2021/07/03 08:24:59;;;;;;;20.60;8.90;;;22.60;31.20;;;;;;5049020;28;20398;-76
2021/07/03 08:27:25;;;;;;;13.00;8.70;;;22.60;31.20;;;;;;5053002;28;20688;-76
2021/07/03 08:29:51;;;;;;;12.25;9.25;;;22.70;31.30;;;;;;5052637;28;20390;-77
2021/07/03 08:32:16;;;;;;;13.37;9.40;;;22.80;29.70;;;;;;5049938;28;20429;-76
2021/07/03 08:34:42;;;;;;;12.00;9.35;;;22.90;29.90;;;;;;5056847;28;20397;-77
2021/07/03 08:37:07;;;;;;;14.97;9.20;;;23.00;29.00;;;;;;5060981;28;20390;-77
2021/07/03 08:39:33;;;;;;;9.50;8.00;;;23.00;29.80;;;;;;5074572;28;20822;-77
2021/07/03 08:41:58;;;;;;;11.50;8.85;;;23.10;28.40;;;;;;5059090;28;20439;-78
2021/07/03 08:44:24;;;;;;;10.10;8.80;;;23.20;27.80;;;;;;5058994;28;20545;-78
2021/07/03 08:46:50;;;;;;;14.35;9.32;;;23.20;27.80;;;;;;5059949;28;20427;-79
2021/07/03 08:49:17;;;;;;;10.70;8.50;;;23.40;27.80;;;;;;5058254;28;20392;-78
2021/07/03 08:51:46;;;;;;;13.70;8.52;;;23.50;27.80;;;;;;5060592;28;20741;-79
2021/07/03 08:54:14;;;;;;;12.32;8.50;;;23.60;27.60;;;;;;5057492;28;20452;-78
2021/07/03 08:56:40;;;;;;;11.93;8.95;;;23.60;26.10;;;;;;5056888;28;20393;-77
2021/07/03 08:59:17;;;;;;;10.43;9.27;;;23.50;25.20;;;;;;5057346;28;20396;-78
2021/07/03 09:01:53;;;;;;;11.75;7.90;;;23.70;25.90;;;;;;5059016;28;20427;-77
2021/07/03 09:04:35;;;;;;;11.00;8.80;;;23.90;24.50;;;;;;5056037;28;20451;-78
2021/07/03 09:07:14;;;;;;;9.80;8.27;;;24.00;25.10;;;;;;5057176;28;20385;-78
2021/07/03 09:09:39;;;;;;;12.05;7.65;;;24.10;24.70;;;;;;5072718;28;20488;-76
2021/07/03 09:12:05;;;;;;;10.07;8.55;;;24.20;24.90;;;;;;5056686;28;20420;-77
2021/07/03 09:14:31;;;;;;;13.02;8.38;;;24.20;21.90;;;;;;5056890;28;20412;-79
2021/07/03 09:16:58;;;;;;;14.07;8.60;;;24.20;22.40;;;;;;5072513;28;20439;-79
2021/07/03 09:19:29;;;;;;;8.98;7.97;;;24.30;20.80;;;;;;5058233;28;20393;-77
2021/07/03 09:21:55;;;;;;;10.63;8.57;;;24.20;20.80;;;;;;5057746;28;20735;-77
2021/07/03 09:24:21;;;;;;;11.40;9.45;;;24.20;21.60;;;;;;5073246;28;20397;-76
2021/07/03 09:27:02;;;;;;;12.60;8.97;;;24.20;21.90;;;;;;5056922;28;20392;-80
2021/07/03 09:29:29;;;;;;;10.90;9.13;;;24.30;22.70;;;;;;5057530;28;20442;-77
2021/07/03 09:31:54;;;;;;;9.75;8.68;;;24.30;20.70;;;;;;5049968;28;20381;-76
2021/07/03 09:34:22;;;;;;;12.98;8.60;;;24.40;20.70;;;;;;5050119;28;20400;-76
2021/07/03 09:36:48;;;;;;;9.07;8.07;;;24.50;20.80;;;;;;5054241;28;20785;-77
2021/07/03 09:39:23;;;;;;;11.40;8.07;;;24.50;20.50;;;;;;5054552;28;20377;-75
2021/07/03 09:41:49;;;;;;;8.95;7.40;;;24.60;19.70;;;;;;5055315;28;20381;-76
2021/07/03 09:44:15;;;;;;;9.70;8.10;;;24.80;17.80;;;;;;5054212;28;20389;-76
2021/07/03 09:46:50;;;;;;;10.37;8.33;;;24.80;18.00;;;;;;5055019;28;20437;-75
2021/07/03 09:49:19;;;;;;;9.77;8.37;;;24.90;17.90;;;;;;5052722;28;20393;-75
2021/07/03 09:51:47;;;;;;;9.48;8.20;;;24.90;18.20;;;;;;5054546;28;20377;-78
2021/07/03 09:54:24;;;;;;;10.20;8.25;;;25.00;18.80;;;;;;5054091;28;20403;-76
2021/07/03 09:56:59;;;;;;;11.95;7.68;;;25.00;18.50;;;;;;5054492;28;20378;-77
2021/07/03 09:59:28;;;;;;;11.90;7.43;;;25.10;17.10;;;;;;5054210;28;20885;-76
2021/07/03 10:01:53;;;;;;;9.40;7.07;;;25.10;16.90;;;;;;5053677;28;20393;-78
2021/07/03 10:04:19;;;;;;;9.40;7.80;;;25.20;16.50;;;;;;5052669;28;20400;-77
2021/07/03 10:06:50;;;;;;;11.23;8.23;;;25.20;17.20;;;;;;5054484;28;20436;-76
2021/07/03 10:09:28;;;;;;;9.90;7.57;;;25.30;16.60;;;;;;5053793;28;20912;-76
2021/07/03 10:12:01;;;;;;;9.82;8.30;;;25.20;15.30;;;;;;5055000;28;20413;-75
2021/07/03 10:14:27;;;;;;;9.57;7.50;;;25.30;15.40;;;;;;5054955;28;20447;-76
2021/07/03 10:17:01;;;;;;;10.73;8.50;;;25.20;16.30;;;;;;5056605;28;20711;-76
2021/07/03 10:19:33;;;;;;;9.20;8.30;;;25.20;17.80;;;;;;5057714;28;20378;-76
2021/07/03 10:22:15;;;;;;;10.07;8.13;;;25.30;17.10;;;;;;5056861;28;20381;-75
2021/07/03 10:24:48;;;;;;;9.10;7.38;;;25.40;17.30;;;;;;5056181;28;20723;-75
2021/07/03 10:27:27;;;;;;;13.98;7.85;;;25.50;16.30;;;;;;5055273;28;20454;-77
2021/07/03 10:30:00;;;;;;;10.90;7.70;;;25.40;14.90;;;;;;5068595;28;20511;-76
2021/07/03 10:32:34;;;;;;;10.52;7.60;;;25.30;15.40;;;;;;5054863;28;20381;-77
2021/07/03 10:35:11;;;;;;;9.47;7.47;;;25.50;15.30;;;;;;5057715;28;20506;-78
2021/07/03 10:37:37;;;;;;;11.90;8.02;;;25.50;16.70;;;;;;5058522;28;20409;-77
2021/07/03 10:40:29;;;;;;;10.20;8.10;;;25.40;15.90;;;;;;5055827;28;20433;-77
2021/07/03 10:43:16;;;;;;;9.30;7.80;;;25.40;15.50;;;;;;5052974;28;20746;-75
2021/07/03 10:45:50;;;;;;;12.50;8.60;;;25.40;15.60;;;;;;5054220;28;20385;-77
2021/07/03 10:48:18;;;;;;;9.30;8.20;;;25.30;16.60;;;;;;5053134;28;20466;-77
2021/07/03 10:50:44;;;;;;;10.52;7.82;;;25.50;16.80;;;;;;5055494;28;20385;-76
2021/07/03 10:53:23;;;;;;;10.65;7.80;;;25.60;15.80;;;;;;5057585;28;20882;-77
2021/07/03 10:55:49;;;;;;;11.65;8.00;;;25.80;15.50;;;;;;5058240;28;20908;-76
2021/07/03 10:58:19;;;;;;;11.37;7.40;;;25.90;15.70;;;;;;5057727;28;20436;-77
2021/07/03 11:00:48;;;;;;;10.37;8.00;;;26.00;14.90;;;;;;5055112;28;20413;-78
2021/07/03 11:03:15;;;;;;;7.50;6.60;;;26.00;15.40;;;;;;5055885;28;20386;-78
2021/07/03 11:05:41;;;;;;;9.55;7.80;;;26.00;14.50;;;;;;5052304;28;20421;-76
2021/07/03 11:08:11;;;;;;;9.93;7.53;;;25.70;15.20;;;;;;5054672;28;20749;-77
2021/07/03 11:10:39;;;;;;;8.82;7.32;;;25.30;15.90;;;;;;5053762;28;20393;-76
2021/07/03 11:13:05;;;;;;;8.50;7.60;;;25.20;16.50;;;;;;5054856;28;20395;-77
2021/07/03 11:15:36;;;;;;;11.00;7.25;;;25.30;16.70;;;;;;5052395;28;20402;-76
2021/07/03 11:18:03;;;;;;;8.57;6.13;;;25.40;17.10;;;;;;5054355;28;20393;-77
2021/07/03 11:20:37;;;;;;;8.95;6.57;;;25.70;15.20;;;;;;5052597;28;20716;-77
2021/07/03 11:23:05;;;;;;;7.03;6.32;;;25.80;15.30;;;;;;5052930;28;20382;-76
2021/07/03 11:25:42;;;;;;;7.93;6.40;;;26.00;15.30;;;;;;5052791;28;20385;-76
2021/07/03 11:28:12;;;;;;;7.53;6.82;;;26.10;14.70;;;;;;5053202;28;20381;-76
2021/07/03 11:30:40;;;;;;;6.93;6.15;;;26.20;14.10;;;;;;5052000;28;20402;-77
2021/07/03 11:33:09;;;;;;;9.10;6.47;;;26.20;14.30;;;;;;5052080;28;20389;-77
2021/07/03 11:35:38;;;;;;;9.20;7.10;;;26.20;13.00;;;;;;5052138;28;20484;-75
2021/07/03 11:38:04;;;;;;;9.40;6.50;;;26.30;13.50;;;;;;5052278;28;20393;-77
2021/07/03 11:40:31;;;;;;;7.95;6.30;;;26.60;13.10;;;;;;5051862;28;20385;-76
2021/07/03 11:43:03;;;;;;;7.03;6.25;;;26.80;13.10;;;;;;5051544;28;20546;-78
2021/07/03 11:45:32;;;;;;;8.52;7.05;;;27.30;13.00;;;;;;5052101;28;20924;-78
2021/07/03 11:48:04;;;;;;;7.30;6.60;;;27.60;11.70;;;;;;5052207;28;20385;-77
2021/07/03 11:50:35;;;;;;;8.25;7.15;;;27.90;12.40;;;;;;5052033;28;20390;-77
2021/07/03 11:53:02;;;;;;;8.90;6.90;;;28.20;11.90;;;;;;5051999;28;20455;-77
2021/07/03 11:55:37;;;;;;;8.13;6.37;;;28.50;9.90;;;;;;5052480;28;20409;-77
2021/07/03 11:58:04;;;;;;;7.65;6.55;;;29.00;10.60;;;;;;5050463;28;20397;-77
2021/07/03 12:00:34;;;;;;;9.10;6.40;;;29.50;9.00;;;;;;5052130;28;20388;-77
2021/07/03 12:03:02;;;;;;;6.97;6.20;;;29.80;8.70;;;;;;5054450;28;20461;-78
2021/07/03 12:05:38;;;;;;;6.25;5.70;;;29.70;7.70;;;;;;5051705;28;20421;-76
2021/07/03 12:08:06;;;;;;;7.18;6.00;;;30.00;7.70;;;;;;5050085;28;20413;-77
2021/07/03 12:10:36;;;;;;;6.85;5.10;;;30.50;7.30;;;;;;5051734;28;20762;-76
2021/07/03 12:13:04;;;;;;;5.28;4.65;;;30.40;6.80;;;;;;5052971;28;20388;-78
2021/07/03 12:15:29;;;;;;;5.80;5.03;;;30.10;7.10;;;;;;5052464;28;20886;-77
2021/07/03 12:17:57;;;;;;;5.50;5.00;;;29.30;7.20;;;;;;5049957;28;20474;-76
2021/07/03 12:20:23;;;;;;;6.00;5.40;;;29.10;6.90;;;;;;5051466;28;20413;-76
2021/07/03 12:23:04;;;;;;;8.73;5.50;;;29.20;7.20;;;;;;5051205;28;20382;-76
2021/07/03 12:25:31;;;;;;;5.68;5.15;;;29.40;6.50;;;;;;5052847;28;20396;-78
2021/07/03 12:28:05;;;;;;;7.50;5.03;;;29.30;6.90;;;;;;5051671;28;20878;-78
2021/07/03 12:30:31;;;;;;;6.80;6.10;;;29.60;6.70;;;;;;5051503;28;20436;-76
2021/07/03 12:33:17;;;;;;;5.97;5.28;;;29.80;7.20;;;;;;5051604;28;20397;-78
2021/07/03 12:35:53;;;;;;;5.93;5.32;;;29.70;6.20;;;;;;5051853;28;20405;-78